sensor_id;sensor_type;location;lat;lon;timestamp;pressure;altitude;pressure_sealevel;temperature;humidity
20077;BME280;12348;42.710;23.378;2023-03-20T00:00:22;95480.50;;;4.28;100.00
20077;BME280;12348;42.710;23.378;2023-03-20T00:02:50;95481.38;;;4.17;100.00
20077;BME280;12348;42.710;23.378;2023-03-20T00:05:19;95467.97;;;4.11;100.00
20077;BME280;12348;42.710;23.378;2023-03-20T00:07:47;95469.31;;;4.14;100.00
20077;BME280;12348;42.710;23.378;2023-03-20T00:10:16;95467.78;;;4.18;100.00
20077;BME280;12348;42.710;23.378;2023-03-20T00:12:45;95464.41;;;4.06;100.00
20077;BME280;12348;42.710;23.378;2023-03-20T00:15:26;95468.38;;;4.03;100.00
20077;BME280;12348;42.710;23.378;2023-03-20T00:17:53;95463.91;;;3.92;100.00
20077;BME280;12348;42.710;23.378;2023-03-20T00:20:21;95466.94;;;3.84;100.00
20077;BME280;12348;42.710;23.378;2023-03-20T00:22:48;95465.47;;;3.76;100.00
20077;BME280;12348;42.710;23.378;2023-03-20T00:25:16;95463.31;;;3.61;100.00
20077;BME280;12348;42.710;23.378;2023-03-20T00:27:45;95456.44;;;3.49;100.00
20077;BME280;12348;42.710;23.378;2023-03-20T00:30:21;95463.53;;;3.31;100.00
20077;BME280;12348;42.710;23.378;2023-03-20T00:32:50;95466.09;;;3.26;100.00
20077;BME280;12348;42.710;23.378;2023-03-20T00:35:20;95458.00;;;3.21;100.00
20077;BME280;12348;42.710;23.378;2023-03-20T00:37:48;95460.91;;;3.20;100.00
20077;BME280;12348;42.710;23.378;2023-03-20T00:40:16;95463.47;;;3.14;100.00
20077;BME280;12348;42.710;23.378;2023-03-20T00:42:46;95461.97;;;3.19;100.00
20077;BME280;12348;42.710;23.378;2023-03-20T00:45:16;95461.59;;;3.27;100.00
20077;BME280;12348;42.710;23.378;2023-03-20T00:47:44;95456.50;;;3.25;100.00
20077;BME280;12348;42.710;23.378;2023-03-20T00:50:17;95458.34;;;3.25;100.00
20077;BME280;12348;42.710;23.378;2023-03-20T00:52:45;95459.84;;;3.21;100.00
20077;BME280;12348;42.710;23.378;2023-03-20T00:55:12;95456.50;;;3.13;100.00
20077;BME280;12348;42.710;23.378;2023-03-20T00:57:43;95455.47;;;3.26;100.00
20077;BME280;12348;42.710;23.378;2023-03-20T01:00:25;95450.59;;;3.23;100.00
20077;BME280;12348;42.710;23.378;2023-03-20T01:02:55;95453.25;;;3.23;100.00
20077;BME280;12348;42.710;23.378;2023-03-20T01:05:23;95446.88;;;3.24;100.00
20077;BME280;12348;42.710;23.378;2023-03-20T01:07:50;95440.09;;;3.16;100.00
20077;BME280;12348;42.710;23.378;2023-03-20T01:10:17;95433.25;;;3.21;100.00
20077;BME280;12348;42.710;23.378;2023-03-20T01:12:45;95432.78;;;3.24;100.00
20077;BME280;12348;42.710;23.378;2023-03-20T01:15:19;95430.03;;;3.19;100.00
20077;BME280;12348;42.710;23.378;2023-03-20T01:17:48;95434.53;;;3.18;100.00
20077;BME280;12348;42.710;23.378;2023-03-20T01:20:23;95433.84;;;3.23;100.00
20077;BME280;12348;42.710;23.378;2023-03-20T01:22:50;95421.59;;;3.22;100.00
20077;BME280;12348;42.710;23.378;2023-03-20T01:25:17;95421.59;;;3.22;100.00
20077;BME280;12348;42.710;23.378;2023-03-20T01:27:46;95427.25;;;3.25;100.00
20077;BME280;12348;42.710;23.378;2023-03-20T01:30:17;95431.59;;;3.31;100.00
20077;BME280;12348;42.710;23.378;2023-03-20T01:32:47;95426.88;;;3.33;100.00
20077;BME280;12348;42.710;23.378;2023-03-20T01:35:17;95428.03;;;3.26;100.00
20077;BME280;12348;42.710;23.378;2023-03-20T01:37:44;95430.66;;;3.37;100.00
20077;BME280;12348;42.710;23.378;2023-03-20T01:40:18;95428.38;;;3.29;100.00
20077;BME280;12348;42.710;23.378;2023-03-20T01:42:50;95435.75;;;3.68;100.00
20077;BME280;12348;42.710;23.378;2023-03-20T01:45:20;95438.59;;;3.49;100.00
20077;BME280;12348;42.710;23.378;2023-03-20T01:47:49;95438.75;;;3.43;100.00
20077;BME280;12348;42.710;23.378;2023-03-20T01:50:24;95444.31;;;3.41;100.00
20077;BME280;12348;42.710;23.378;2023-03-20T01:52:56;95445.88;;;3.54;100.00
20077;BME280;12348;42.710;23.378;2023-03-20T01:55:25;95443.84;;;3.44;100.00
20077;BME280;12348;42.710;23.378;2023-03-20T01:57:52;95447.19;;;3.39;100.00
20077;BME280;12348;42.710;23.378;2023-03-20T02:00:20;95452.38;;;3.18;100.00
20077;BME280;12348;42.710;23.378;2023-03-20T02:02:49;95450.88;;;2.98;100.00
20077;BME280;12348;42.710;23.378;2023-03-20T02:05:18;95444.09;;;2.79;100.00
20077;BME280;12348;42.710;23.378;2023-03-20T02:07:50;95436.47;;;2.59;100.00
20077;BME280;12348;42.710;23.378;2023-03-20T02:10:19;95439.47;;;2.51;100.00
20077;BME280;12348;42.710;23.378;2023-03-20T02:12:46;95436.59;;;2.29;100.00
20077;BME280;12348;42.710;23.378;2023-03-20T02:15:15;95441.88;;;2.17;100.00
20077;BME280;12348;42.710;23.378;2023-03-20T02:17:43;95437.56;;;2.04;100.00
20077;BME280;12348;42.710;23.378;2023-03-20T02:20:19;95441.28;;;2.03;100.00
20077;BME280;12348;42.710;23.378;2023-03-20T02:23:23;95439.31;;;1.99;100.00
20077;BME280;12348;42.710;23.378;2023-03-20T02:26:30;95436.97;;;1.90;100.00
20077;BME280;12348;42.710;23.378;2023-03-20T02:29:36;95447.56;;;1.90;100.00
20077;BME280;12348;42.710;23.378;2023-03-20T02:38:47;95446.84;;;2.13;100.00
20077;BME280;12348;42.710;23.378;2023-03-20T02:41:23;95442.69;;;2.17;100.00
20077;BME280;12348;42.710;23.378;2023-03-20T02:43:59;95436.09;;;2.20;100.00
20077;BME280;12348;42.710;23.378;2023-03-20T02:46:33;95432.97;;;2.23;100.00
20077;BME280;12348;42.710;23.378;2023-03-20T02:49:09;95426.06;;;2.22;100.00
20077;BME280;12348;42.710;23.378;2023-03-20T02:51:47;95425.59;;;2.25;100.00
20077;BME280;12348;42.710;23.378;2023-03-20T02:54:25;95422.81;;;2.20;100.00
20077;BME280;12348;42.710;23.378;2023-03-20T02:56:58;95422.44;;;2.16;100.00
20077;BME280;12348;42.710;23.378;2023-03-20T02:59:30;95420.28;;;2.13;100.00
20077;BME280;12348;42.710;23.378;2023-03-20T03:02:05;95427.41;;;2.01;100.00
20077;BME280;12348;42.710;23.378;2023-03-20T03:04:35;95420.59;;;2.05;100.00
20077;BME280;12348;42.710;23.378;2023-03-20T03:07:04;95431.47;;;2.04;100.00
20077;BME280;12348;42.710;23.378;2023-03-20T03:09:38;95434.44;;;1.96;100.00
20077;BME280;12348;42.710;23.378;2023-03-20T03:12:11;95425.91;;;2.05;100.00
20077;BME280;12348;42.710;23.378;2023-03-20T03:14:43;95429.84;;;2.14;100.00
20077;BME280;12348;42.710;23.378;2023-03-20T03:17:12;95431.81;;;2.19;100.00
20077;BME280;12348;42.710;23.378;2023-03-20T03:19:42;95438.09;;;2.25;100.00
20077;BME280;12348;42.710;23.378;2023-03-20T03:22:12;95425.94;;;2.52;100.00
20077;BME280;12348;42.710;23.378;2023-03-20T03:24:45;95423.75;;;2.49;100.00
20077;BME280;12348;42.710;23.378;2023-03-20T03:27:17;95420.28;;;2.60;100.00
20077;BME280;12348;42.710;23.378;2023-03-20T03:29:49;95432.19;;;2.81;100.00
20077;BME280;12348;42.710;23.378;2023-03-20T03:32:24;95428.84;;;2.62;100.00
20077;BME280;12348;42.710;23.378;2023-03-20T03:34:52;95435.44;;;2.60;100.00
20077;BME280;12348;42.710;23.378;2023-03-20T03:37:25;95436.47;;;2.47;100.00
20077;BME280;12348;42.710;23.378;2023-03-20T03:40:02;95425.13;;;2.63;100.00
20077;BME280;12348;42.710;23.378;2023-03-20T03:42:34;95434.03;;;2.57;100.00
20077;BME280;12348;42.710;23.378;2023-03-20T03:45:07;95431.50;;;2.51;100.00
20077;BME280;12348;42.710;23.378;2023-03-20T03:47:38;95434.94;;;2.28;100.00
20077;BME280;12348;42.710;23.378;2023-03-20T03:50:10;95427.31;;;2.19;100.00
20077;BME280;12348;42.710;23.378;2023-03-20T03:52:40;95428.56;;;2.05;100.00
20077;BME280;12348;42.710;23.378;2023-03-20T03:55:13;95430.75;;;1.97;100.00
20077;BME280;12348;42.710;23.378;2023-03-20T03:57:45;95427.38;;;1.89;100.00
20077;BME280;12348;42.710;23.378;2023-03-20T04:00:18;95428.97;;;1.79;100.00
20077;BME280;12348;42.710;23.378;2023-03-20T04:02:49;95427.69;;;1.69;100.00
20077;BME280;12348;42.710;23.378;2023-03-20T04:05:18;95427.56;;;1.64;100.00
20077;BME280;12348;42.710;23.378;2023-03-20T04:07:47;95417.03;;;1.58;100.00
20077;BME280;12348;42.710;23.378;2023-03-20T04:10:16;95421.38;;;1.82;100.00
20077;BME280;12348;42.710;23.378;2023-03-20T04:12:43;95417.91;;;1.82;100.00
20077;BME280;12348;42.710;23.378;2023-03-20T04:15:11;95420.91;;;1.85;100.00
20077;BME280;12348;42.710;23.378;2023-03-20T04:17:38;95415.22;;;1.70;100.00
20077;BME280;12348;42.710;23.378;2023-03-20T04:20:07;95411.03;;;1.62;100.00
20077;BME280;12348;42.710;23.378;2023-03-20T04:22:35;95417.19;;;1.75;100.00
20077;BME280;12348;42.710;23.378;2023-03-20T04:25:03;95409.09;;;1.69;100.00
20077;BME280;12348;42.710;23.378;2023-03-20T04:27:31;95412.66;;;1.63;100.00
20077;BME280;12348;42.710;23.378;2023-03-20T04:29:58;95407.69;;;1.55;100.00
20077;BME280;12348;42.710;23.378;2023-03-20T04:32:25;95405.81;;;1.56;100.00
20077;BME280;12348;42.710;23.378;2023-03-20T04:34:51;95408.63;;;1.61;100.00
20077;BME280;12348;42.710;23.378;2023-03-20T04:37:18;95416.75;;;1.78;100.00
20077;BME280;12348;42.710;23.378;2023-03-20T04:39:45;95418.09;;;2.22;100.00
20077;BME280;12348;42.710;23.378;2023-03-20T04:42:12;95420.75;;;2.81;100.00
20077;BME280;12348;42.710;23.378;2023-03-20T04:44:40;95420.34;;;3.41;100.00
20077;BME280;12348;42.710;23.378;2023-03-20T04:47:07;95418.19;;;3.83;100.00
20077;BME280;12348;42.710;23.378;2023-03-20T04:49:34;95424.91;;;4.36;100.00
20077;BME280;12348;42.710;23.378;2023-03-20T04:52:00;95427.84;;;4.91;100.00
20077;BME280;12348;42.710;23.378;2023-03-20T04:54:28;95425.38;;;5.50;100.00
20077;BME280;12348;42.710;23.378;2023-03-20T04:56:54;95432.28;;;6.22;100.00
20077;BME280;12348;42.710;23.378;2023-03-20T04:59:21;95440.34;;;6.64;100.00
20077;BME280;12348;42.710;23.378;2023-03-20T05:01:49;95430.63;;;7.43;100.00
20077;BME280;12348;42.710;23.378;2023-03-20T05:04:16;95428.53;;;7.60;100.00
20077;BME280;12348;42.710;23.378;2023-03-20T05:06:43;95431.78;;;7.62;100.00
20077;BME280;12348;42.710;23.378;2023-03-20T05:09:13;95436.06;;;7.68;100.00
20077;BME280;12348;42.710;23.378;2023-03-20T05:11:40;95445.59;;;7.34;100.00
20077;BME280;12348;42.710;23.378;2023-03-20T05:14:07;95445.69;;;7.01;100.00
20077;BME280;12348;42.710;23.378;2023-03-20T05:16:33;95443.50;;;6.93;100.00
20077;BME280;12348;42.710;23.378;2023-03-20T05:19:02;95446.78;;;6.63;100.00
20077;BME280;12348;42.710;23.378;2023-03-20T05:21:29;95456.88;;;6.93;100.00
20077;BME280;12348;42.710;23.378;2023-03-20T05:23:55;95454.44;;;7.39;99.71
20077;BME280;12348;42.710;23.378;2023-03-20T05:26:22;95448.69;;;7.73;96.38
20077;BME280;12348;42.710;23.378;2023-03-20T05:28:49;95455.69;;;7.79;90.95
20077;BME280;12348;42.710;23.378;2023-03-20T05:31:16;95451.97;;;8.00;90.21
20077;BME280;12348;42.710;23.378;2023-03-20T05:33:43;95443.66;;;8.02;88.75
20077;BME280;12348;42.710;23.378;2023-03-20T05:36:11;95448.31;;;8.42;86.54
20077;BME280;12348;42.710;23.378;2023-03-20T05:38:38;95454.75;;;8.87;83.67
20077;BME280;12348;42.710;23.378;2023-03-20T05:41:05;95465.66;;;9.32;79.96
20077;BME280;12348;42.710;23.378;2023-03-20T05:43:32;95457.03;;;9.45;79.95
20077;BME280;12348;42.710;23.378;2023-03-20T05:45:58;95459.78;;;9.89;78.37
20077;BME280;12348;42.710;23.378;2023-03-20T05:48:25;95460.16;;;9.73;76.38
20077;BME280;12348;42.710;23.378;2023-03-20T05:50:52;95459.03;;;10.38;73.35
20077;BME280;12348;42.710;23.378;2023-03-20T05:53:20;95464.31;;;10.49;71.50
20077;BME280;12348;42.710;23.378;2023-03-20T05:55:46;95456.91;;;10.99;70.41
20077;BME280;12348;42.710;23.378;2023-03-20T05:58:13;95460.97;;;11.73;68.04
20077;BME280;12348;42.710;23.378;2023-03-20T06:00:40;95452.63;;;12.69;60.11
20077;BME280;12348;42.710;23.378;2023-03-20T06:03:07;95454.09;;;14.23;55.33
20077;BME280;12348;42.710;23.378;2023-03-20T06:05:34;95449.38;;;14.88;51.92
20077;BME280;12348;42.710;23.378;2023-03-20T06:08:01;95447.78;;;15.09;50.03
20077;BME280;12348;42.710;23.378;2023-03-20T06:10:30;95450.97;;;15.42;48.57
20077;BME280;12348;42.710;23.378;2023-03-20T06:12:58;95451.13;;;15.46;49.06
20077;BME280;12348;42.710;23.378;2023-03-20T06:15:25;95457.66;;;14.83;48.96
20077;BME280;12348;42.710;23.378;2023-03-20T06:17:52;95451.28;;;15.41;47.91
20077;BME280;12348;42.710;23.378;2023-03-20T06:20:19;95464.94;;;15.58;48.18
20077;BME280;12348;42.710;23.378;2023-03-20T06:22:46;95459.97;;;14.98;49.44
20077;BME280;12348;42.710;23.378;2023-03-20T06:25:13;95454.28;;;14.86;49.15
20077;BME280;12348;42.710;23.378;2023-03-20T06:27:41;95447.44;;;13.79;53.13
20077;BME280;12348;42.710;23.378;2023-03-20T06:30:10;95449.81;;;14.45;50.63
20077;BME280;12348;42.710;23.378;2023-03-20T06:32:37;95452.78;;;14.35;51.23
20077;BME280;12348;42.710;23.378;2023-03-20T06:35:04;95448.34;;;13.75;53.04
20077;BME280;12348;42.710;23.378;2023-03-20T06:37:32;95459.53;;;12.94;54.86
20077;BME280;12348;42.710;23.378;2023-03-20T06:39:59;95452.16;;;13.00;56.33
20077;BME280;12348;42.710;23.378;2023-03-20T06:42:26;95460.81;;;12.64;57.74
20077;BME280;12348;42.710;23.378;2023-03-20T06:44:54;95455.06;;;12.52;59.21
20077;BME280;12348;42.710;23.378;2023-03-20T06:47:21;95461.66;;;13.30;56.49
20077;BME280;12348;42.710;23.378;2023-03-20T06:49:48;95455.19;;;11.85;62.52
20077;BME280;12348;42.710;23.378;2023-03-20T06:52:16;95451.16;;;13.09;56.48
20077;BME280;12348;42.710;23.378;2023-03-20T06:54:44;95440.50;;;14.01;53.69
20077;BME280;12348;42.710;23.378;2023-03-20T06:57:12;95434.56;;;14.49;52.39
20077;BME280;12348;42.710;23.378;2023-03-20T06:59:39;95436.25;;;14.45;51.42
20077;BME280;12348;42.710;23.378;2023-03-20T07:02:08;95440.31;;;14.34;51.98
20077;BME280;12348;42.710;23.378;2023-03-20T07:04:35;95446.72;;;15.50;49.16
20077;BME280;12348;42.710;23.378;2023-03-20T07:07:06;95438.16;;;15.34;48.90
20077;BME280;12348;42.710;23.378;2023-03-20T07:09:33;95435.72;;;15.24;52.23
20077;BME280;12348;42.710;23.378;2023-03-20T07:12:00;95432.78;;;15.12;52.28
20077;BME280;12348;42.710;23.378;2023-03-20T07:14:27;95447.94;;;15.44;49.82
20077;BME280;12348;42.710;23.378;2023-03-20T07:16:54;95446.91;;;15.62;48.67
20077;BME280;12348;42.710;23.378;2023-03-20T07:19:22;95437.13;;;15.21;50.79
20077;BME280;12348;42.710;23.378;2023-03-20T07:21:52;95428.97;;;15.92;48.63
20077;BME280;12348;42.710;23.378;2023-03-20T07:24:21;95420.88;;;16.18;47.61
20077;BME280;12348;42.710;23.378;2023-03-20T07:26:48;95431.50;;;17.36;45.78
20077;BME280;12348;42.710;23.378;2023-03-20T07:29:14;95419.69;;;17.79;44.33
20077;BME280;12348;42.710;23.378;2023-03-20T07:31:41;95419.34;;;17.42;43.95
20077;BME280;12348;42.710;23.378;2023-03-20T07:34:08;95431.94;;;16.91;46.86
20077;BME280;12348;42.710;23.378;2023-03-20T07:36:36;95429.47;;;19.27;42.41
20077;BME280;12348;42.710;23.378;2023-03-20T07:39:04;95424.03;;;18.52;42.21
20077;BME280;12348;42.710;23.378;2023-03-20T07:41:31;95425.53;;;19.03;42.62
20077;BME280;12348;42.710;23.378;2023-03-20T07:43:58;95423.41;;;18.76;42.18
20077;BME280;12348;42.710;23.378;2023-03-20T07:46:25;95424.72;;;19.24;41.33
20077;BME280;12348;42.710;23.378;2023-03-20T07:48:52;95424.19;;;19.55;41.85
20077;BME280;12348;42.710;23.378;2023-03-20T07:51:18;95428.81;;;18.13;43.07
20077;BME280;12348;42.710;23.378;2023-03-20T07:53:46;95424.78;;;17.42;45.53
20077;BME280;12348;42.710;23.378;2023-03-20T07:56:13;95433.16;;;17.76;45.96
20077;BME280;12348;42.710;23.378;2023-03-20T07:58:40;95427.13;;;19.04;43.96
20077;BME280;12348;42.710;23.378;2023-03-20T08:01:07;95427.06;;;21.13;39.54
20077;BME280;12348;42.710;23.378;2023-03-20T08:03:34;95423.31;;;22.98;36.44
20077;BME280;12348;42.710;23.378;2023-03-20T08:06:00;95419.38;;;21.02;38.48
20077;BME280;12348;42.710;23.378;2023-03-20T08:08:28;95420.63;;;22.47;36.65
20077;BME280;12348;42.710;23.378;2023-03-20T08:10:56;95422.34;;;22.36;36.08
20077;BME280;12348;42.710;23.378;2023-03-20T08:13:23;95429.03;;;20.07;38.78
20077;BME280;12348;42.710;23.378;2023-03-20T08:15:50;95421.03;;;21.35;37.98
20077;BME280;12348;42.710;23.378;2023-03-20T08:18:18;95418.03;;;21.12;38.20
20077;BME280;12348;42.710;23.378;2023-03-20T08:20:46;95416.56;;;20.87;38.27
20077;BME280;12348;42.710;23.378;2023-03-20T08:23:14;95415.31;;;22.03;37.19
20077;BME280;12348;42.710;23.378;2023-03-20T08:25:41;95416.16;;;22.39;36.39
20077;BME280;12348;42.710;23.378;2023-03-20T08:28:13;95409.72;;;22.51;36.19
20077;BME280;12348;42.710;23.378;2023-03-20T08:30:40;95415.75;;;21.90;36.68
20077;BME280;12348;42.710;23.378;2023-03-20T08:33:07;95417.50;;;21.50;38.12
20077;BME280;12348;42.710;23.378;2023-03-20T08:35:33;95417.00;;;21.76;37.55
20077;BME280;12348;42.710;23.378;2023-03-20T08:38:00;95426.63;;;22.18;37.32
20077;BME280;12348;42.710;23.378;2023-03-20T08:40:27;95417.34;;;22.58;36.65
20077;BME280;12348;42.710;23.378;2023-03-20T08:42:57;95420.22;;;24.38;34.05
20077;BME280;12348;42.710;23.378;2023-03-20T08:45:26;95409.91;;;25.55;32.53
20077;BME280;12348;42.710;23.378;2023-03-20T08:47:53;95414.25;;;25.19;33.00
20077;BME280;12348;42.710;23.378;2023-03-20T08:50:21;95408.28;;;22.38;36.93
20077;BME280;12348;42.710;23.378;2023-03-20T08:52:48;95406.75;;;22.40;37.05
20077;BME280;12348;42.710;23.378;2023-03-20T08:55:15;95405.63;;;23.61;35.72
20077;BME280;12348;42.710;23.378;2023-03-20T08:57:42;95408.66;;;23.56;34.26
20077;BME280;12348;42.710;23.378;2023-03-20T09:00:11;95402.78;;;22.38;35.93
20077;BME280;12348;42.710;23.378;2023-03-20T09:02:41;95401.59;;;23.55;34.18
20077;BME280;12348;42.710;23.378;2023-03-20T09:05:09;95391.91;;;22.61;34.71
20077;BME280;12348;42.710;23.378;2023-03-20T09:07:36;95400.69;;;22.31;35.63
20077;BME280;12348;42.710;23.378;2023-03-20T09:10:04;95397.28;;;21.71;37.04
20077;BME280;12348;42.710;23.378;2023-03-20T09:12:31;95392.50;;;23.74;33.81
20077;BME280;12348;42.710;23.378;2023-03-20T09:14:58;95387.50;;;22.21;36.62
20077;BME280;12348;42.710;23.378;2023-03-20T09:17:25;95387.59;;;22.79;36.38
20077;BME280;12348;42.710;23.378;2023-03-20T09:19:54;95384.25;;;22.70;35.41
20077;BME280;12348;42.710;23.378;2023-03-20T09:22:21;95384.13;;;23.90;33.56
20077;BME280;12348;42.710;23.378;2023-03-20T09:24:47;95378.22;;;24.71;32.09
20077;BME280;12348;42.710;23.378;2023-03-20T09:27:14;95381.03;;;23.26;33.34
20077;BME280;12348;42.710;23.378;2023-03-20T09:29:41;95382.81;;;24.07;32.29
20077;BME280;12348;42.710;23.378;2023-03-20T09:32:09;95369.06;;;23.15;32.99
20077;BME280;12348;42.710;23.378;2023-03-20T09:34:37;95368.06;;;22.84;32.38
20077;BME280;12348;42.710;23.378;2023-03-20T09:37:05;95366.97;;;22.69;33.18
20077;BME280;12348;42.710;23.378;2023-03-20T09:39:32;95369.72;;;22.50;33.37
20077;BME280;12348;42.710;23.378;2023-03-20T09:42:03;95362.75;;;22.01;34.09
20077;BME280;12348;42.710;23.378;2023-03-20T09:44:42;95353.59;;;23.07;33.18
20077;BME280;12348;42.710;23.378;2023-03-20T09:47:16;95354.63;;;23.64;33.34
20077;BME280;12348;42.710;23.378;2023-03-20T09:49:50;95345.63;;;23.44;33.14
20077;BME280;12348;42.710;23.378;2023-03-20T09:52:23;95339.47;;;23.74;32.87
20077;BME280;12348;42.710;23.378;2023-03-20T09:54:54;95334.47;;;24.06;32.17
20077;BME280;12348;42.710;23.378;2023-03-20T09:57:25;95324.16;;;23.27;32.83
20077;BME280;12348;42.710;23.378;2023-03-20T09:59:55;95316.47;;;22.55;34.49
20077;BME280;12348;42.710;23.378;2023-03-20T10:02:33;95314.94;;;22.96;33.77
20077;BME280;12348;42.710;23.378;2023-03-20T10:05:03;95304.31;;;23.86;32.45
20077;BME280;12348;42.710;23.378;2023-03-20T10:07:38;95303.66;;;23.70;32.67
20077;BME280;12348;42.710;23.378;2023-03-20T10:10:06;95291.78;;;23.39;33.42
20077;BME280;12348;42.710;23.378;2023-03-20T10:12:45;95288.41;;;23.04;32.93
20077;BME280;12348;42.710;23.378;2023-03-20T10:15:18;95285.31;;;21.38;35.80
20077;BME280;12348;42.710;23.378;2023-03-20T10:17:50;95281.66;;;22.97;34.15
20077;BME280;12348;42.710;23.378;2023-03-20T10:20:25;95286.38;;;23.46;32.55
20077;BME280;12348;42.710;23.378;2023-03-20T10:22:58;95283.47;;;23.85;32.91
20077;BME280;12348;42.710;23.378;2023-03-20T10:25:31;95281.31;;;21.35;35.53
20077;BME280;12348;42.710;23.378;2023-03-20T10:27:59;95282.28;;;18.64;39.88
20077;BME280;12348;42.710;23.378;2023-03-20T10:30:37;95277.47;;;19.19;40.15
20077;BME280;12348;42.710;23.378;2023-03-20T10:33:20;95266.84;;;20.59;38.30
20077;BME280;12348;42.710;23.378;2023-03-20T10:35:58;95260.28;;;22.10;35.79
20077;BME280;12348;42.710;23.378;2023-03-20T10:38:38;95264.06;;;22.40;35.15
20077;BME280;12348;42.710;23.378;2023-03-20T10:41:12;95262.16;;;23.06;34.32
20077;BME280;12348;42.710;23.378;2023-03-20T10:43:41;95260.50;;;23.74;33.34
20077;BME280;12348;42.710;23.378;2023-03-20T10:46:12;95253.00;;;23.71;33.98
20077;BME280;12348;42.710;23.378;2023-03-20T10:48:43;95257.63;;;23.40;33.60
20077;BME280;12348;42.710;23.378;2023-03-20T10:51:14;95235.38;;;24.36;32.36
20077;BME280;12348;42.710;23.378;2023-03-20T10:53:46;95241.06;;;23.90;32.61
20077;BME280;12348;42.710;23.378;2023-03-20T10:56:26;95231.19;;;23.59;33.68
20077;BME280;12348;42.710;23.378;2023-03-20T10:58:58;95225.56;;;24.69;32.24
20077;BME280;12348;42.710;23.378;2023-03-20T11:01:26;95224.06;;;24.11;33.19
20077;BME280;12348;42.710;23.378;2023-03-20T11:03:53;95225.34;;;24.17;33.04
20077;BME280;12348;42.710;23.378;2023-03-20T11:06:24;95220.94;;;24.12;32.63
20077;BME280;12348;42.710;23.378;2023-03-20T11:08:54;95219.56;;;24.29;32.86
20077;BME280;12348;42.710;23.378;2023-03-20T11:11:24;95211.50;;;23.30;33.29
20077;BME280;12348;42.710;23.378;2023-03-20T11:13:52;95206.03;;;24.13;33.04
20077;BME280;12348;42.710;23.378;2023-03-20T11:16:21;95203.34;;;24.51;32.47
20077;BME280;12348;42.710;23.378;2023-03-20T11:18:50;95202.13;;;23.84;31.97
20077;BME280;12348;42.710;23.378;2023-03-20T11:21:20;95198.59;;;23.84;32.14
20077;BME280;12348;42.710;23.378;2023-03-20T11:23:48;95196.94;;;23.26;33.48
20077;BME280;12348;42.710;23.378;2023-03-20T11:26:18;95189.69;;;23.67;32.99
20077;BME280;12348;42.710;23.378;2023-03-20T11:28:50;95190.19;;;23.73;33.79
20077;BME280;12348;42.710;23.378;2023-03-20T11:31:23;95183.50;;;23.74;32.96
20077;BME280;12348;42.710;23.378;2023-03-20T11:33:52;95166.03;;;23.89;32.02
20077;BME280;12348;42.710;23.378;2023-03-20T11:36:27;95169.66;;;23.40;34.47
20077;BME280;12348;42.710;23.378;2023-03-20T11:39:00;95168.50;;;23.15;34.10
20077;BME280;12348;42.710;23.378;2023-03-20T11:41:31;95163.44;;;24.04;33.17
20077;BME280;12348;42.710;23.378;2023-03-20T11:43:58;95155.28;;;24.11;31.78
20077;BME280;12348;42.710;23.378;2023-03-20T11:46:25;95149.06;;;24.51;32.69
20077;BME280;12348;42.710;23.378;2023-03-20T11:49:16;95138.06;;;24.55;30.95
20077;BME280;12348;42.710;23.378;2023-03-20T11:51:45;95142.94;;;24.31;30.54
20077;BME280;12348;42.710;23.378;2023-03-20T11:54:15;95131.25;;;24.08;31.56
20077;BME280;12348;42.710;23.378;2023-03-20T11:56:54;95121.56;;;24.55;30.52
20077;BME280;12348;42.710;23.378;2023-03-20T11:59:21;95120.94;;;24.35;29.89
20077;BME280;12348;42.710;23.378;2023-03-20T12:01:53;95124.47;;;24.32;28.44
20077;BME280;12348;42.710;23.378;2023-03-20T12:04:26;95120.22;;;23.70;28.83
20077;BME280;12348;42.710;23.378;2023-03-20T12:06:56;95116.38;;;23.75;28.68
20077;BME280;12348;42.710;23.378;2023-03-20T12:09:34;95109.31;;;24.52;28.90
20077;BME280;12348;42.710;23.378;2023-03-20T12:12:11;95107.28;;;24.46;28.72
20077;BME280;12348;42.710;23.378;2023-03-20T12:14:44;95102.13;;;24.85;27.92
20077;BME280;12348;42.710;23.378;2023-03-20T12:17:34;95095.28;;;24.68;27.64
20077;BME280;12348;42.710;23.378;2023-03-20T12:20:13;95093.53;;;24.94;27.67
20077;BME280;12348;42.710;23.378;2023-03-20T12:22:52;95097.72;;;25.32;26.84
20077;BME280;12348;42.710;23.378;2023-03-20T12:25:22;95093.34;;;25.20;27.14
20077;BME280;12348;42.710;23.378;2023-03-20T12:27:56;95096.88;;;25.13;26.39
20077;BME280;12348;42.710;23.378;2023-03-20T12:30:31;95091.59;;;24.98;26.05
20077;BME280;12348;42.710;23.378;2023-03-20T12:33:03;95089.78;;;24.68;26.24
20077;BME280;12348;42.710;23.378;2023-03-20T12:35:35;95086.94;;;24.54;26.13
20077;BME280;12348;42.710;23.378;2023-03-20T12:38:04;95084.78;;;24.36;26.92
20077;BME280;12348;42.710;23.378;2023-03-20T12:40:42;95077.56;;;24.62;26.37
20077;BME280;12348;42.710;23.378;2023-03-20T12:43:14;95069.69;;;24.64;25.99
20077;BME280;12348;42.710;23.378;2023-03-20T12:45:47;95068.34;;;24.43;25.69
20077;BME280;12348;42.710;23.378;2023-03-20T12:48:48;95064.16;;;24.19;27.05
20077;BME280;12348;42.710;23.378;2023-03-20T12:51:25;95066.84;;;24.09;26.58
20077;BME280;12348;42.710;23.378;2023-03-20T12:54:02;95061.66;;;24.04;25.93
20077;BME280;12348;42.710;23.378;2023-03-20T12:56:57;95058.22;;;24.14;26.26
20077;BME280;12348;42.710;23.378;2023-03-20T12:59:38;95042.72;;;23.95;26.10
20077;BME280;12348;42.710;23.378;2023-03-20T13:02:31;95055.25;;;23.92;26.55
20077;BME280;12348;42.710;23.378;2023-03-20T13:05:08;95039.66;;;23.66;27.09
20077;BME280;12348;42.710;23.378;2023-03-20T13:07:51;95039.31;;;23.38;27.36
20077;BME280;12348;42.710;23.378;2023-03-20T13:10:29;95043.88;;;22.73;27.39
20077;BME280;12348;42.710;23.378;2023-03-20T13:13:12;95037.81;;;22.87;27.21